Palhoca, Brazil
Current Conditions -  °F | °C
As of 1:00 PM on Monday 22 Dec 2014 (Local Time) from SBFL Reporting Station
Broken Clouds Broken Clouds  
Wind Chill: 75°   Ceiling: 8000
Heat Index: 75°   Visibility: 6mi
Dew Point: 66°   Wind: 9mph
Humidity: 73%   Direction: 180°S
Pressure: 29.88"   Gusts: NA
Location:  27.65°S, 48.67°W
Report Text: SBFL 221500Z 18008KT 140V220 9999 SCT017 BKN080 24/19 Q1012
Loading
Personal Weather Stations






























Interactive Weather Map New forecast layout! Learn more

10-Day Weather Forecast

Advertisements
Track Severe Weather on mobile